Kezdőlap
METAR-TAF:

METAR-TAF

Repülőterek :

Red Cliff Pass

Copper Mountain, Colorado, Amerikai Egyesült Államok

földrajzi szélesség: 39-28-02N, földrajzi hosszúság: 106-09-01W, magasság: 3680 m

Jelenlegi meteorológiai megfigyelések

A jelentés 14 perccel ezelõtt készült, 01:15 UTC
Dél-délkeleti szél 11 kt széllökések: 16 kt
Hőmérséklet 12°C
Páratartalom 58%
Légköri nyomás 1046 hPa
Látótávolság: 16.1 km
Szórványos felhőzet 1700 lábon
Szakadozott felhőzet 6500 lábon
Borult 9500 lábon

METAR: KCCU 250115Z AUTO 15011G16KT 10SM SCT017 BKN065 OVC095 12/04 A3088 RMK AO2

Idő: 19:29 (01:29 UTC)


TAF: hiányzik

Meteorológiai megfigyelések és előrejelzések több, mint 4000 repülőtéren (METAR és TAF jelentéseket).

A térképen piros és sárga pontok jelzik az elérhető meteorológiai állomásokat.

Mozgassa az egeret a pont fölött, hogy megjelenjen az állomás neve.

Azután kattintson az időjárási megfigyelések és előrejelzések megtekintéséhez.

A térkép megváltoztatása: kattintson a fekete keresztel jelölt zöld gombra ráközelítéshez, a vonallal jelölt zöld gombra távolításhoz, vagy a zöld nyilakra a szomszédos térképek eléréséhez.


METAR-TAF: